Time;durP1;ratioP1;P1;durP2;ratioP2;P2;SDS_P1;SDS_P2;PMS_P1;PMS_P2;Temp;Humidity;BMP_temperature;BMP_pressure;BME280_temperature;BME280_humidity;BME280_pressure;Samples;Min_cycle;Max_cycle;Signal;HPM_P1;HPM_P2
2023/02/05 00:00:14;;;;;;;0.50;0.50;;;4.10;99.90;;;;;;5049025;28;20056;-84
2023/02/05 00:02:40;;;;;;;0.55;0.55;;;3.90;99.90;;;;;;5015233;28;20418;-86
2023/02/05 00:05:07;;;;;;;0.50;0.50;;;3.80;99.90;;;;;;5027893;28;20033;-86
2023/02/05 00:07:33;;;;;;;0.50;0.50;;;3.90;99.90;;;;;;5047629;28;20044;-88
2023/02/05 00:09:58;;;;;;;0.55;0.55;;;3.90;99.90;;;;;;5018630;28;20698;-86
2023/02/05 00:12:24;;;;;;;0.60;0.60;;;4.20;99.90;;;;;;5032245;28;20041;-87
2023/02/05 00:14:50;;;;;;;0.50;0.50;;;4.10;99.90;;;;;;5030943;28;20080;-87
2023/02/05 00:17:15;;;;;;;0.52;0.52;;;4.40;99.90;;;;;;5029405;28;20132;-85
2023/02/05 00:19:41;;;;;;;0.68;0.68;;;4.00;99.90;;;;;;5030392;28;20053;-86
2023/02/05 00:22:07;;;;;;;0.60;0.60;;;4.20;99.90;;;;;;5021945;28;20110;-86
2023/02/05 00:24:32;;;;;;;0.60;0.60;;;4.00;99.90;;;;;;5041634;28;20045;-86
2023/02/05 00:26:58;;;;;;;0.57;0.57;;;4.70;99.90;;;;;;5042697;28;20034;-87
2023/02/05 00:29:24;;;;;;;0.70;0.70;;;4.10;99.90;;;;;;5048266;28;20119;-87
2023/02/05 00:31:50;;;;;;;0.50;0.50;;;4.50;99.90;;;;;;5049004;28;20048;-87
2023/02/05 00:34:16;;;;;;;1.40;0.80;;;4.10;99.90;;;;;;5031357;28;20036;-85
2023/02/05 00:36:41;;;;;;;0.63;0.63;;;4.10;99.90;;;;;;5045152;28;20048;-83
2023/02/05 00:39:12;;;;;;;;;;;4.10;99.90;;;;;;5045307;28;20038;-85
2023/02/05 00:41:38;;;;;;;1.15;1.15;;;4.10;99.90;;;;;;5028611;28;19923;-86
2023/02/05 00:44:05;;;;;;;0.65;0.65;;;4.20;99.90;;;;;;5035442;28;20120;-86
2023/02/05 00:46:30;;;;;;;;;;;4.20;99.90;;;;;;5033606;28;20136;-85
2023/02/05 00:48:57;;;;;;;0.60;0.60;;;4.20;99.90;;;;;;5071224;28;20326;-86
2023/02/05 00:51:22;;;;;;;;;;;4.20;99.90;;;;;;5053620;28;20139;-87
2023/02/05 00:53:48;;;;;;;0.70;0.70;;;4.20;99.90;;;;;;5056867;28;19916;-87
2023/02/05 00:56:14;;;;;;;0.60;0.60;;;4.30;99.90;;;;;;5034874;28;20489;-86
2023/02/05 00:58:40;;;;;;;0.50;0.50;;;4.30;99.90;;;;;;5026564;28;20095;-85
2023/02/05 01:01:05;;;;;;;1.38;1.38;;;4.30;99.90;;;;;;5053458;28;20036;-84
2023/02/05 01:03:31;;;;;;;1.75;1.52;;;4.30;99.90;;;;;;5047872;28;20041;-86
2023/02/05 01:05:58;;;;;;;0.65;0.65;;;4.30;99.90;;;;;;5038517;28;20040;-85
2023/02/05 01:08:23;;;;;;;0.68;0.68;;;4.30;99.90;;;;;;5049568;28;20108;-86
2023/02/05 01:10:51;;;;;;;0.70;0.70;;;4.30;99.90;;;;;;5035177;28;20128;-85
2023/02/05 01:13:17;;;;;;;0.40;0.40;;;4.40;99.90;;;;;;5025030;28;20048;-84
2023/02/05 01:15:43;;;;;;;0.70;0.70;;;4.40;99.90;;;;;;5053402;28;20068;-87
2023/02/05 01:18:09;;;;;;;2.10;2.00;;;4.30;99.90;;;;;;5049360;28;20120;-87
2023/02/05 01:20:37;;;;;;;0.60;0.60;;;4.40;99.90;;;;;;5049752;28;20037;-86
2023/02/05 01:23:03;;;;;;;0.40;0.40;;;4.40;99.90;;;;;;5037941;28;20071;-86
2023/02/05 01:25:29;;;;;;;;;;;4.40;99.90;;;;;;5051796;28;20045;-86
2023/02/05 01:27:55;;;;;;;0.77;0.77;;;4.40;99.90;;;;;;5058836;28;19924;-86
2023/02/05 01:30:20;;;;;;;0.57;0.57;;;4.40;99.90;;;;;;5048995;28;20049;-86
2023/02/05 01:32:46;;;;;;;2.50;2.30;;;4.60;99.90;;;;;;5022628;28;20375;-87
2023/02/05 01:35:12;;;;;;;0.80;0.80;;;4.40;99.90;;;;;;5036785;28;20040;-85
2023/02/05 01:37:38;;;;;;;0.60;0.60;;;4.60;99.90;;;;;;5053252;28;20045;-87
2023/02/05 01:40:04;;;;;;;0.70;0.70;;;4.30;99.90;;;;;;5054422;28;20059;-85
2023/02/05 01:42:31;;;;;;;;;;;4.30;99.90;;;;;;5055830;28;20118;-86
2023/02/05 01:45:22;;;;;;;1.35;1.35;;;4.30;99.90;;;;;;5047325;28;20462;-85
2023/02/05 01:47:53;;;;;;;0.63;0.63;;;4.30;99.90;;;;;;5039902;28;20545;-85
2023/02/05 01:50:25;;;;;;;0.57;0.57;;;4.30;99.90;;;;;;5030738;28;20036;-86
2023/02/05 01:52:52;;;;;;;0.65;0.65;;;4.20;99.90;;;;;;5044201;28;20729;-86
2023/02/05 01:55:19;;;;;;;0.47;0.47;;;4.20;99.90;;;;;;5028489;28;20066;-86
2023/02/05 01:57:46;;;;;;;0.50;0.50;;;4.20;99.90;;;;;;5021016;28;20505;-87
2023/02/05 02:00:12;;;;;;;1.00;1.00;;;4.70;99.90;;;;;;5014232;28;20097;-86
2023/02/05 02:02:37;;;;;;;0.52;0.52;;;4.30;99.90;;;;;;5032313;28;20479;-86
2023/02/05 02:05:10;;;;;;;0.70;0.70;;;4.30;99.90;;;;;;5047384;28;20043;-88
2023/02/05 02:07:36;;;;;;;0.60;0.60;;;4.30;99.90;;;;;;5051323;28;20435;-86
2023/02/05 02:10:02;;;;;;;;;;;4.30;99.90;;;;;;5047269;28;20064;-86
2023/02/05 02:12:31;;;;;;;0.65;0.65;;;4.70;99.90;;;;;;5043136;28;19917;-85
2023/02/05 02:15:02;;;;;;;0.90;0.90;;;4.80;99.90;;;;;;5043710;28;20041;-86
2023/02/05 02:17:29;;;;;;;0.55;0.55;;;4.40;99.90;;;;;;5053656;28;20041;-86
2023/02/05 02:20:05;;;;;;;0.65;0.65;;;4.40;99.90;;;;;;5041947;28;20021;-87
2023/02/05 02:22:52;;;;;;;0.70;0.70;;;4.40;99.90;;;;;;5048393;28;20046;-85
2023/02/05 02:25:39;;;;;;;0.80;0.80;;;4.40;99.90;;;;;;5031385;28;20033;-87
2023/02/05 02:28:16;;;;;;;0.68;0.68;;;4.40;99.90;;;;;;5049263;28;20395;-87
2023/02/05 02:30:43;;;;;;;15.90;1.67;;;4.50;99.90;;;;;;5031504;28;20037;-86
2023/02/05 02:33:16;;;;;;;0.50;0.50;;;4.40;99.90;;;;;;5046006;28;20394;-87
2023/02/05 02:35:58;;;;;;;0.77;0.77;;;4.50;99.90;;;;;;5037105;28;20044;-87
2023/02/05 02:38:33;;;;;;;0.57;0.57;;;4.50;99.90;;;;;;5049065;28;20477;-86
2023/02/05 02:41:17;;;;;;;0.60;0.60;;;4.60;99.90;;;;;;5039015;28;20062;-86
2023/02/05 02:43:57;;;;;;;0.82;0.82;;;4.60;99.90;;;;;;5023880;28;20125;-87
2023/02/05 02:46:27;;;;;;;0.70;0.70;;;4.50;99.90;;;;;;5037650;28;20069;-87
2023/02/05 02:48:55;;;;;;;0.60;0.60;;;4.70;99.90;;;;;;5051281;28;20045;-87
2023/02/05 02:51:23;;;;;;;0.85;0.85;;;4.60;99.90;;;;;;5045424;28;20051;-86
2023/02/05 02:53:53;;;;;;;0.40;0.40;;;4.60;99.90;;;;;;5041117;28;20037;-88
2023/02/05 02:56:21;;;;;;;0.68;0.68;;;4.70;99.90;;;;;;5027437;28;20048;-86
2023/02/05 02:58:56;;;;;;;0.60;0.60;;;5.10;99.90;;;;;;5060979;28;20124;-87
2023/02/05 03:01:24;;;;;;;0.57;0.57;;;4.70;99.90;;;;;;5045454;28;20107;-86
2023/02/05 03:03:58;;;;;;;0.60;0.60;;;4.80;99.90;;;;;;5026455;28;20091;-86
2023/02/05 03:06:28;;;;;;;1.15;1.15;;;5.00;99.90;;;;;;5043668;28;20088;-87
2023/02/05 03:09:00;;;;;;;0.82;0.82;;;4.70;99.90;;;;;;5043945;28;20048;-86
2023/02/05 03:11:26;;;;;;;0.93;0.93;;;4.70;99.90;;;;;;5041326;28;20484;-86
2023/02/05 03:13:53;;;;;;;1.30;1.20;;;4.80;99.90;;;;;;5044105;28;20080;-87
2023/02/05 03:16:19;;;;;;;0.50;0.50;;;4.80;99.90;;;;;;5049382;28;20071;-86
2023/02/05 03:18:46;;;;;;;1.02;1.02;;;5.00;99.90;;;;;;5014932;28;20492;-87
2023/02/05 03:21:17;;;;;;;0.85;0.85;;;4.80;99.90;;;;;;5023877;28;20084;-86
2023/02/05 03:23:44;;;;;;;0.80;0.80;;;5.10;99.90;;;;;;5047587;28;20073;-86
2023/02/05 03:26:30;;;;;;;0.95;0.95;;;4.80;99.90;;;;;;5037379;28;20061;-86
2023/02/05 03:28:59;;;;;;;9.17;2.53;;;4.80;99.90;;;;;;5050030;28;20033;-85
2023/02/05 03:31:35;;;;;;;1.08;1.08;;;4.90;99.90;;;;;;5046250;28;20033;-87
2023/02/05 03:34:27;;;;;;;2.03;1.35;;;4.90;99.90;;;;;;5052263;28;20041;-87
2023/02/05 03:37:20;;;;;;;0.98;0.98;;;5.00;99.90;;;;;;5037191;28;20080;-86
2023/02/05 03:40:14;;;;;;;0.70;0.70;;;4.90;99.90;;;;;;5040983;28;20576;-85
2023/02/05 03:42:55;;;;;;;0.60;0.60;;;4.90;99.90;;;;;;5037064;28;20042;-86
2023/02/05 03:45:28;;;;;;;2.72;2.47;;;4.90;99.90;;;;;;5046159;28;20040;-87
2023/02/05 03:48:05;;;;;;;1.38;1.33;;;5.00;99.90;;;;;;5044588;28;20049;-87
2023/02/05 03:50:54;;;;;;;2.95;1.15;;;5.00;99.90;;;;;;5056026;28;20094;-87
2023/02/05 03:53:56;;;;;;;0.82;0.82;;;5.00;99.90;;;;;;5050318;28;20053;-87
2023/02/05 03:56:35;;;;;;;0.60;0.60;;;5.00;99.90;;;;;;5022034;28;20132;-87
2023/02/05 03:59:02;;;;;;;1.20;1.20;;;5.00;99.90;;;;;;5028217;28;20037;-86
2023/02/05 04:01:28;;;;;;;0.63;0.63;;;5.00;99.90;;;;;;5047014;28;20045;-87
2023/02/05 04:03:54;;;;;;;0.50;0.50;;;5.00;99.90;;;;;;5023923;28;20041;-85
2023/02/05 04:06:20;;;;;;;0.60;0.60;;;5.10;99.90;;;;;;5011212;28;20439;-86
2023/02/05 04:08:51;;;;;;;0.55;0.55;;;5.40;99.90;;;;;;5024027;28;20048;-85
2023/02/05 04:11:17;;;;;;;0.60;0.60;;;5.20;99.90;;;;;;5021290;28;20045;-87
2023/02/05 04:13:43;;;;;;;2.22;2.13;;;5.10;99.90;;;;;;5050995;28;20524;-87
2023/02/05 04:16:08;;;;;;;0.77;0.77;;;5.10;99.90;;;;;;5034682;28;20047;-88
2023/02/05 04:18:34;;;;;;;0.60;0.60;;;5.20;99.90;;;;;;5018317;28;20037;-89
2023/02/05 04:21:00;;;;;;;0.65;0.65;;;5.20;99.90;;;;;;5031417;28;20103;-88
2023/02/05 04:23:26;;;;;;;;;;;5.30;99.90;;;;;;5025099;28;20099;-87
2023/02/05 04:25:53;;;;;;;0.60;0.60;;;5.50;99.90;;;;;;5041422;28;19925;-88
2023/02/05 04:28:19;;;;;;;0.80;0.80;;;5.20;99.90;;;;;;5029538;28;20036;-87
2023/02/05 04:30:44;;;;;;;0.60;0.60;;;5.20;99.90;;;;;;5029324;28;20182;-88
2023/02/05 04:33:10;;;;;;;0.57;0.57;;;5.20;99.90;;;;;;5042831;28;20033;-88
2023/02/05 04:35:36;;;;;;;0.50;0.50;;;5.30;99.90;;;;;;5053093;28;20037;-85
2023/02/05 04:38:02;;;;;;;0.80;0.80;;;5.30;99.90;;;;;;5050531;28;20040;-86
2023/02/05 04:40:27;;;;;;;0.80;0.80;;;5.30;99.90;;;;;;5030379;28;20494;-87
2023/02/05 04:42:53;;;;;;;0.65;0.65;;;5.40;99.90;;;;;;5027233;28;20036;-88
2023/02/05 04:45:20;;;;;;;0.50;0.50;;;5.40;99.90;;;;;;5033505;28;20106;-88
2023/02/05 04:47:46;;;;;;;3.03;2.83;;;5.40;99.90;;;;;;5011132;28;20041;-86
2023/02/05 04:50:17;;;;;;;1.30;1.30;;;5.40;99.90;;;;;;5029341;28;20095;-88
2023/02/05 04:52:43;;;;;;;0.93;0.93;;;5.40;99.90;;;;;;5026791;28;20445;-86
2023/02/05 04:55:08;;;;;;;1.05;1.05;;;5.40;99.90;;;;;;5030993;28;20037;-85
2023/02/05 04:57:34;;;;;;;0.73;0.73;;;5.50;99.90;;;;;;5043586;28;20534;-85
2023/02/05 05:00:01;;;;;;;2.13;1.95;;;5.50;99.90;;;;;;5041236;28;20049;-86
2023/02/05 05:02:27;;;;;;;0.50;0.50;;;5.50;99.90;;;;;;5024091;28;20033;-86
2023/02/05 05:04:52;;;;;;;0.65;0.65;;;6.20;99.90;;;;;;5048653;28;20048;-84
2023/02/05 05:07:18;;;;;;;0.68;0.68;;;5.80;99.90;;;;;;5032631;28;20041;-84
2023/02/05 05:09:44;;;;;;;0.65;0.65;;;5.70;99.90;;;;;;5043163;28;20045;-87
2023/02/05 05:12:09;;;;;;;0.70;0.70;;;5.70;99.90;;;;;;5031811;28;20037;-88
2023/02/05 05:14:36;;;;;;;0.68;0.68;;;5.70;99.90;;;;;;5035426;28;20040;-84
2023/02/05 05:17:02;;;;;;;0.70;0.70;;;5.80;99.90;;;;;;5050353;28;20132;-85
2023/02/05 05:19:28;;;;;;;0.55;0.55;;;5.80;99.90;;;;;;5031269;28;20275;-86
2023/02/05 05:21:53;;;;;;;0.60;0.60;;;5.80;99.90;;;;;;5042963;28;20108;-89
2023/02/05 05:24:19;;;;;;;0.80;0.80;;;6.10;99.90;;;;;;5047909;28;20037;-89
2023/02/05 05:26:45;;;;;;;0.70;0.70;;;5.90;99.90;;;;;;5050374;28;20082;-87
2023/02/05 05:29:12;;;;;;;0.70;0.70;;;5.90;99.90;;;;;;5013439;28;20039;-85
2023/02/05 05:31:37;;;;;;;1.65;1.55;;;5.90;99.90;;;;;;5048883;28;20076;-87
2023/02/05 05:34:03;;;;;;;0.47;0.47;;;6.00;99.90;;;;;;5050279;28;20136;-85
2023/02/05 05:36:29;;;;;;;0.50;0.50;;;5.90;99.90;;;;;;5047223;28;20037;-85
2023/02/05 05:43:45;;;;;;;1.05;1.05;;;5.90;99.90;;;;;;5049562;28;20371;-84
2023/02/05 05:44:25;;;;;;;0.47;0.47;;;5.80;99.90;;;;;;5032836;28;20421;-86
2023/02/05 05:46:50;;;;;;;0.38;0.38;;;5.80;99.90;;;;;;5020435;28;20048;-85
2023/02/05 05:49:16;;;;;;;0.50;0.50;;;5.80;99.90;;;;;;5048321;28;20064;-86
2023/02/05 05:51:41;;;;;;;0.60;0.60;;;5.70;99.90;;;;;;5019637;28;20052;-87
2023/02/05 05:54:07;;;;;;;0.60;0.60;;;5.90;99.90;;;;;;5051218;28;20041;-86
2023/02/05 05:56:34;;;;;;;0.60;0.60;;;5.60;99.90;;;;;;5028539;28;20045;-84
2023/02/05 05:59:00;;;;;;;0.50;0.50;;;5.60;99.90;;;;;;5027180;28;20045;-85
2023/02/05 06:01:26;;;;;;;0.50;0.50;;;5.70;99.90;;;;;;5044166;28;20512;-87
2023/02/05 06:03:52;;;;;;;0.60;0.60;;;5.50;99.90;;;;;;5050167;28;20103;-88
2023/02/05 06:06:18;;;;;;;0.60;0.60;;;5.50;99.90;;;;;;5036780;28;20065;-87
2023/02/05 06:08:44;;;;;;;0.60;0.60;;;5.40;99.90;;;;;;5050931;28;20032;-89
2023/02/05 06:11:09;;;;;;;0.63;0.63;;;5.30;99.90;;;;;;5026379;28;20088;-86
2023/02/05 06:13:35;;;;;;;0.60;0.60;;;5.20;99.90;;;;;;5044963;28;20065;-87
2023/02/05 06:16:02;;;;;;;0.57;0.57;;;5.30;99.90;;;;;;5031274;28;20517;-87
2023/02/05 06:18:28;;;;;;;0.50;0.50;;;5.30;99.90;;;;;;5052867;28;20098;-87
2023/02/05 06:20:53;;;;;;;0.50;0.50;;;5.20;99.90;;;;;;5023940;28;20046;-88
2023/02/05 06:23:20;;;;;;;0.63;0.63;;;5.40;99.90;;;;;;5041475;28;20034;-87
2023/02/05 06:25:46;;;;;;;0.70;0.70;;;5.40;99.90;;;;;;5024476;28;20490;-87
2023/02/05 06:28:11;;;;;;;0.50;0.50;;;5.30;99.90;;;;;;5036236;28;20067;-87
2023/02/05 06:30:37;;;;;;;0.52;0.52;;;5.30;99.90;;;;;;5054489;28;20497;-87
2023/02/05 06:33:04;;;;;;;0.50;0.50;;;5.40;99.90;;;;;;5060231;28;20095;-88
2023/02/05 06:35:30;;;;;;;0.70;0.70;;;5.40;99.90;;;;;;5030428;28;20081;-89
2023/02/05 06:37:56;;;;;;;0.60;0.60;;;5.40;99.90;;;;;;5039432;28;20045;-87
2023/02/05 06:40:24;;;;;;;0.60;0.60;;;5.40;99.90;;;;;;5032083;28;20040;-87
2023/02/05 06:42:52;;;;;;;0.63;0.63;;;5.30;99.90;;;;;;5045379;28;20048;-88
2023/02/05 06:45:18;;;;;;;0.52;0.52;;;5.40;99.90;;;;;;5050143;28;20033;-87
2023/02/05 06:47:43;;;;;;;0.50;0.50;;;5.40;99.90;;;;;;5021483;28;20053;-87
2023/02/05 06:50:09;;;;;;;0.40;0.40;;;5.70;99.90;;;;;;5020812;28;20501;-88
2023/02/05 06:52:35;;;;;;;0.60;0.60;;;5.30;99.90;;;;;;5029829;28;20120;-86
2023/02/05 06:55:00;;;;;;;0.68;0.68;;;5.50;99.90;;;;;;5038355;28;20033;-87
2023/02/05 06:57:26;;;;;;;0.45;0.45;;;5.50;99.90;;;;;;5047262;28;20037;-87
2023/02/05 06:59:52;;;;;;;0.60;0.60;;;5.70;99.90;;;;;;5028832;28;20472;-88
2023/02/05 07:02:18;;;;;;;0.60;0.60;;;5.60;99.90;;;;;;5031660;28;20041;-88
2023/02/05 07:04:44;;;;;;;0.65;0.65;;;5.50;99.90;;;;;;5049333;28;20048;-88
2023/02/05 07:07:09;;;;;;;0.55;0.55;;;5.50;99.90;;;;;;5032719;28;20071;-88
2023/02/05 07:09:35;;;;;;;0.57;0.57;;;5.30;99.90;;;;;;5022461;28;20041;-87
2023/02/05 07:12:01;;;;;;;0.70;0.70;;;5.50;99.90;;;;;;5019431;28;20148;-88
2023/02/05 07:14:27;;;;;;;0.60;0.60;;;5.50;99.90;;;;;;5015393;28;20646;-86
2023/02/05 07:16:52;;;;;;;0.60;0.60;;;5.50;99.90;;;;;;5030431;28;20037;-89
2023/02/05 07:19:18;;;;;;;0.60;0.60;;;5.40;99.90;;;;;;5012250;28;20037;-89
2023/02/05 07:21:44;;;;;;;0.50;0.50;;;5.40;99.90;;;;;;5044623;28;20041;-88
2023/02/05 07:24:09;;;;;;;0.60;0.60;;;5.40;99.90;;;;;;5029599;28;20132;-87
2023/02/05 07:26:35;;;;;;;0.47;0.47;;;5.40;99.90;;;;;;5060737;28;20584;-88
2023/02/05 07:29:02;;;;;;;0.60;0.60;;;5.40;99.90;;;;;;5037968;28;20044;-89
2023/02/05 07:31:28;;;;;;;0.50;0.50;;;5.70;99.90;;;;;;5036326;28;20478;-86
2023/02/05 07:33:54;;;;;;;0.60;0.60;;;5.40;99.90;;;;;;5028822;28;20060;-85
2023/02/05 07:36:20;;;;;;;;;;;5.70;99.90;;;;;;5049165;28;20102;-85
2023/02/05 07:38:46;;;;;;;0.52;0.52;;;5.40;99.90;;;;;;5049048;28;19924;-86
2023/02/05 07:41:14;;;;;;;0.50;0.50;;;5.40;99.90;;;;;;5049761;28;20080;-87
2023/02/05 07:43:40;;;;;;;0.52;0.52;;;5.60;99.90;;;;;;5031363;28;20040;-88
2023/02/05 07:46:08;;;;;;;0.60;0.60;;;5.40;99.90;;;;;;5029818;28;20495;-86
2023/02/05 07:48:34;;;;;;;0.50;0.50;;;5.40;99.90;;;;;;5044273;28;20033;-86
2023/02/05 07:51:00;;;;;;;0.40;0.40;;;5.40;99.90;;;;;;5040010;28;20478;-88
2023/02/05 07:53:26;;;;;;;0.55;0.55;;;5.40;99.90;;;;;;5023387;28;20045;-86
2023/02/05 07:55:52;;;;;;;0.52;0.52;;;5.80;99.90;;;;;;5046647;28;20103;-89
2023/02/05 07:58:17;;;;;;;0.50;0.50;;;5.50;99.90;;;;;;5050089;28;20041;-86
2023/02/05 08:00:43;;;;;;;0.60;0.60;;;5.60;99.90;;;;;;5047813;28;20343;-88
2023/02/05 08:03:09;;;;;;;0.70;0.70;;;5.70;99.90;;;;;;5044193;28;20032;-86
2023/02/05 08:05:36;;;;;;;0.50;0.50;;;5.60;99.90;;;;;;5040190;28;20044;-87
2023/02/05 08:08:02;;;;;;;0.60;0.60;;;5.60;99.90;;;;;;5041379;28;20192;-88
2023/02/05 08:10:28;;;;;;;0.50;0.50;;;5.60;99.90;;;;;;5033291;28;20076;-88
2023/02/05 08:12:54;;;;;;;0.60;0.60;;;5.60;99.90;;;;;;5026366;28;20098;-89
2023/02/05 08:15:20;;;;;;;0.50;0.50;;;5.60;99.90;;;;;;5011984;28;20037;-89
2023/02/05 08:17:45;;;;;;;0.50;0.50;;;6.10;99.90;;;;;;5021438;28;20036;-90
2023/02/05 08:20:12;;;;;;;0.50;0.50;;;5.60;99.90;;;;;;5042314;28;20032;-88
2023/02/05 08:22:40;;;;;;;0.60;0.60;;;5.70;99.90;;;;;;5049388;28;20037;-91
2023/02/05 08:25:09;;;;;;;0.47;0.47;;;5.60;99.90;;;;;;5044572;28;20039;-89
2023/02/05 08:27:35;;;;;;;0.60;0.60;;;5.60;99.90;;;;;;5049973;28;20391;-86
2023/02/05 08:30:08;;;;;;;0.50;0.50;;;5.60;99.90;;;;;;5044225;28;20049;-90
2023/02/05 08:32:34;;;;;;;0.57;0.57;;;5.60;99.90;;;;;;5032349;28;20114;-88
2023/02/05 08:34:59;;;;;;;0.60;0.60;;;5.60;99.90;;;;;;5045144;28;20792;-89
2023/02/05 08:37:26;;;;;;;0.60;0.60;;;5.60;99.90;;;;;;5031275;28;20098;-87
2023/02/05 08:39:52;;;;;;;0.57;0.57;;;5.80;99.90;;;;;;5029871;28;20052;-91
2023/02/05 08:42:18;;;;;;;0.57;0.57;;;5.80;99.90;;;;;;5043925;28;20430;-85
2023/02/05 08:44:50;;;;;;;0.60;0.60;;;5.80;99.90;;;;;;5049059;28;20041;-88
2023/02/05 08:47:20;;;;;;;0.52;0.52;;;5.70;99.90;;;;;;5029578;28;20064;-88
2023/02/05 08:49:46;;;;;;;0.50;0.50;;;5.60;99.90;;;;;;5017339;28;20501;-86
2023/02/05 08:52:11;;;;;;;0.57;0.57;;;5.60;99.90;;;;;;5050033;28;20136;-89
2023/02/05 08:54:37;;;;;;;0.50;0.50;;;5.60;99.90;;;;;;5042961;28;20038;-89
2023/02/05 08:57:03;;;;;;;0.40;0.40;;;5.80;99.90;;;;;;5014121;28;20102;-88
2023/02/05 08:59:29;;;;;;;0.60;0.60;;;5.50;99.90;;;;;;5033753;28;20033;-89
2023/02/05 09:01:54;;;;;;;0.70;0.70;;;5.70;99.90;;;;;;5044639;28;21852;-88
2023/02/05 09:04:22;;;;;;;0.50;0.50;;;6.10;99.90;;;;;;5039788;28;20083;-88
2023/02/05 09:06:48;;;;;;;0.60;0.60;;;5.70;99.90;;;;;;5033088;28;20443;-88
2023/02/05 09:09:14;;;;;;;0.50;0.50;;;5.70;99.90;;;;;;5052999;28;20037;-91
2023/02/05 09:11:40;;;;;;;0.55;0.55;;;5.70;99.90;;;;;;5035973;28;20137;-89
2023/02/05 09:14:06;;;;;;;0.60;0.60;;;5.70;99.90;;;;;;5034290;28;20041;-89
2023/02/05 09:16:32;;;;;;;0.60;0.60;;;5.70;99.90;;;;;;5039483;28;20052;-88
2023/02/05 09:18:58;;;;;;;;;;;5.60;99.90;;;;;;5038179;28;20032;-92
2023/02/05 09:21:24;;;;;;;0.50;0.50;;;5.70;99.90;;;;;;5051084;28;19928;-87
2023/02/05 09:23:50;;;;;;;0.45;0.45;;;5.70;99.90;;;;;;5053667;28;20467;-86
2023/02/05 09:26:17;;;;;;;0.60;0.60;;;5.60;99.90;;;;;;5029412;28;20424;-87
2023/02/05 09:28:43;;;;;;;0.60;0.60;;;5.70;99.90;;;;;;5051931;28;20049;-86
2023/02/05 09:31:11;;;;;;;0.50;0.50;;;6.00;99.90;;;;;;5029330;28;20098;-87
2023/02/05 09:33:37;;;;;;;0.50;0.50;;;5.80;99.90;;;;;;5031120;28;20045;-89
2023/02/05 09:36:33;;;;;;;0.50;0.50;;;6.00;99.90;;;;;;5012669;28;20048;-86
2023/02/05 09:38:58;;;;;;;0.60;0.60;;;5.90;99.90;;;;;;5053674;28;20383;-89
2023/02/05 09:41:41;;;;;;;0.63;0.63;;;5.90;99.90;;;;;;5023136;28;20174;-85
2023/02/05 09:44:30;;;;;;;0.60;0.60;;;6.00;99.90;;;;;;5053509;28;20494;-85
2023/02/05 09:47:37;;;;;;;0.40;0.40;;;6.00;99.90;;;;;;5045689;28;20049;-85
2023/02/05 09:50:16;;;;;;;0.60;0.60;;;6.00;99.90;;;;;;5057593;28;20053;-84
2023/02/05 09:52:46;;;;;;;0.60;0.60;;;6.10;99.90;;;;;;5062041;28;20048;-86
2023/02/05 09:55:45;;;;;;;0.57;0.57;;;6.20;99.90;;;;;;5044409;28;20049;-85
2023/02/05 09:58:33;;;;;;;0.60;0.60;;;6.30;99.90;;;;;;5027233;28;20057;-85
2023/02/05 10:01:11;;;;;;;0.50;0.50;;;6.30;99.90;;;;;;5045615;28;20073;-85
2023/02/05 10:03:48;;;;;;;0.60;0.60;;;6.40;99.90;;;;;;5041829;28;20059;-85
2023/02/05 10:06:32;;;;;;;;;;;6.30;99.90;;;;;;5063032;28;20025;-85
2023/02/05 10:09:19;;;;;;;0.55;0.55;;;6.40;99.90;;;;;;5048333;28;19924;-86
2023/02/05 10:11:54;;;;;;;0.60;0.60;;;6.40;99.90;;;;;;5036486;28;20048;-85
2023/02/05 10:14:55;;;;;;;0.43;0.43;;;6.40;99.90;;;;;;5045861;28;20045;-86
2023/02/05 10:17:28;;;;;;;0.50;0.50;;;6.40;99.90;;;;;;5012894;28;20053;-86
2023/02/05 10:20:26;;;;;;;0.60;0.60;;;6.40;99.90;;;;;;5055505;28;20133;-84
2023/02/05 10:23:16;;;;;;;0.60;0.60;;;6.30;99.90;;;;;;5015691;28;20072;-86
2023/02/05 10:25:57;;;;;;;0.60;0.60;;;6.10;99.90;;;;;;5034381;28;20048;-83
2023/02/05 10:28:36;;;;;;;0.50;0.50;;;5.90;99.90;;;;;;5050854;28;20037;-87
2023/02/05 10:31:17;;;;;;;0.40;0.40;;;6.00;99.90;;;;;;5057228;28;20056;-90
2023/02/05 10:33:45;;;;;;;0.47;0.47;;;6.00;99.90;;;;;;5046731;28;20033;-90
2023/02/05 10:36:11;;;;;;;0.63;0.63;;;6.10;99.90;;;;;;5042983;28;20047;-89
2023/02/05 10:38:43;;;;;;;0.57;0.57;;;6.00;99.90;;;;;;5003299;28;20402;-90
2023/02/05 10:41:32;;;;;;;0.60;0.60;;;6.40;99.90;;;;;;5035382;28;20571;-90
2023/02/05 10:44:22;;;;;;;0.47;0.47;;;6.20;99.90;;;;;;5047702;28;20048;-89
2023/02/05 10:46:52;;;;;;;0.50;0.50;;;6.30;99.90;;;;;;5038165;28;20052;-89
2023/02/05 10:49:39;;;;;;;0.40;0.40;;;6.40;99.90;;;;;;5055112;28;20049;-89
2023/02/05 10:52:10;;;;;;;0.50;0.50;;;6.60;99.90;;;;;;5031507;28;20039;-90
2023/02/05 10:54:37;;;;;;;0.57;0.57;;;6.80;99.90;;;;;;5054403;28;20036;-88
2023/02/05 10:57:03;;;;;;;0.40;0.40;;;6.80;99.90;;;;;;5031185;28;20052;-90
2023/02/05 10:59:30;;;;;;;;;;;6.80;99.90;;;;;;5054153;28;20149;-90
2023/02/05 11:02:01;;;;;;;0.60;0.60;;;6.80;99.90;;;;;;5037371;28;19921;-92
2023/02/05 11:04:35;;;;;;;0.80;0.80;;;6.70;99.90;;;;;;5033882;28;20056;-89
2023/02/05 11:07:04;;;;;;;0.45;0.45;;;6.70;99.90;;;;;;5042356;28;20099;-89
2023/02/05 11:09:32;;;;;;;0.50;0.50;;;6.80;99.90;;;;;;5020985;28;20036;-88
2023/02/05 11:12:24;;;;;;;0.60;0.60;;;6.80;99.90;;;;;;5054074;28;20037;-87
2023/02/05 11:14:57;;;;;;;0.63;0.63;;;6.90;99.90;;;;;;5039121;28;20048;-89
2023/02/05 11:17:35;;;;;;;0.68;0.68;;;6.90;99.90;;;;;;5059005;28;20063;-87
2023/02/05 11:20:27;;;;;;;6.18;3.20;;;7.00;99.90;;;;;;5043900;28;20175;-88
2023/02/05 11:23:19;;;;;;;0.45;0.45;;;7.10;99.90;;;;;;5060245;28;20041;-88
2023/02/05 11:25:52;;;;;;;0.75;0.75;;;7.20;99.90;;;;;;5054418;28;20044;-90
2023/02/05 11:28:25;;;;;;;0.50;0.50;;;7.30;99.90;;;;;;5034016;28;20033;-88
2023/02/05 11:30:51;;;;;;;0.85;0.85;;;7.30;99.90;;;;;;5053551;28;20040;-89
2023/02/05 11:33:16;;;;;;;0.70;0.70;;;7.40;99.90;;;;;;5051661;28;20048;-91
2023/02/05 11:35:56;;;;;;;1.30;1.30;;;7.40;99.90;;;;;;5052395;28;20458;-89
2023/02/05 11:38:43;;;;;;;0.50;0.50;;;7.50;99.90;;;;;;5037488;28;20150;-89
2023/02/05 11:41:11;;;;;;;1.15;1.15;;;7.50;99.90;;;;;;5037797;28;20045;-90
2023/02/05 11:43:44;;;;;;;1.15;1.15;;;7.60;99.90;;;;;;5032272;28;20076;-90
2023/02/05 11:46:15;;;;;;;0.90;0.90;;;7.60;99.90;;;;;;5059899;28;20084;-89
2023/02/05 11:48:43;;;;;;;0.50;0.50;;;7.60;99.90;;;;;;5036109;28;20056;-91
2023/02/05 11:51:14;;;;;;;0.60;0.60;;;7.60;99.90;;;;;;5036436;28;20032;-89
2023/02/05 11:53:58;;;;;;;0.45;0.45;;;7.60;99.90;;;;;;5036338;28;20041;-90
2023/02/05 11:56:25;;;;;;;0.55;0.55;;;7.50;99.90;;;;;;5024404;28;20402;-90
2023/02/05 11:59:16;;;;;;;0.80;0.80;;;7.50;99.90;;;;;;5018890;28;20118;-89
2023/02/05 12:01:43;;;;;;;1.75;1.73;;;7.60;99.90;;;;;;5028635;28;20091;-90
2023/02/05 12:04:12;;;;;;;0.50;0.50;;;7.70;99.90;;;;;;5036874;28;20041;-91
2023/02/05 12:06:54;;;;;;;0.47;0.47;;;7.70;99.90;;;;;;5041523;28;20045;-89
2023/02/05 12:09:26;;;;;;;0.88;0.88;;;7.80;99.90;;;;;;5049543;28;20040;-91
2023/02/05 12:12:17;;;;;;;0.50;0.50;;;7.70;99.90;;;;;;5051094;28;20095;-90
2023/02/05 12:14:51;;;;;;;0.50;0.50;;;7.80;99.90;;;;;;5017048;28;20048;-88
2023/02/05 12:17:44;;;;;;;0.50;0.50;;;7.90;99.90;;;;;;5026776;28;20055;-87
2023/02/05 12:20:20;;;;;;;5.20;1.25;;;7.90;99.90;;;;;;5033655;28;20060;-90
2023/02/05 12:23:10;;;;;;;0.38;0.38;;;7.90;99.90;;;;;;5042592;28;20049;-88
2023/02/05 12:25:36;;;;;;;0.60;0.60;;;7.90;99.90;;;;;;5052801;28;20123;-88
2023/02/05 12:28:18;;;;;;;0.50;0.50;;;7.90;99.90;;;;;;5029505;28;20100;-88
2023/02/05 12:30:49;;;;;;;0.50;0.50;;;7.90;99.90;;;;;;5041958;28;20051;-89
2023/02/05 12:33:27;;;;;;;1.92;1.83;;;8.00;99.90;;;;;;5058999;28;20107;-89
2023/02/05 12:35:53;;;;;;;2.22;2.13;;;8.00;99.90;;;;;;5035514;28;20041;-89
2023/02/05 12:38:54;;;;;;;10.80;0.95;;;8.00;99.90;;;;;;5037861;28;20070;-88
2023/02/05 12:41:23;;;;;;;0.50;0.50;;;8.00;99.90;;;;;;4995261;28;20049;-88
2023/02/05 12:43:52;;;;;;;0.70;0.70;;;8.00;99.90;;;;;;5042873;28;20044;-90
2023/02/05 12:46:46;;;;;;;0.50;0.50;;;8.00;99.90;;;;;;5040798;28;20057;-88
2023/02/05 12:49:18;;;;;;;0.40;0.40;;;8.10;99.90;;;;;;5045262;28;20059;-89
2023/02/05 12:52:09;;;;;;;0.88;0.88;;;8.00;99.90;;;;;;5033589;28;20348;-88
2023/02/05 12:54:47;;;;;;;25.33;2.08;;;8.00;99.90;;;;;;5061230;28;20032;-87
2023/02/05 12:57:18;;;;;;;0.50;0.50;;;8.00;99.90;;;;;;5068557;28;20154;-89
2023/02/05 12:59:59;;;;;;;0.40;0.40;;;7.90;99.90;;;;;;5035744;28;20037;-88
2023/02/05 13:02:49;;;;;;;0.45;0.45;;;8.00;99.90;;;;;;5063443;28;20044;-89
2023/02/05 13:05:41;;;;;;;0.50;0.50;;;8.00;99.90;;;;;;5038375;28;20106;-89
2023/02/05 13:08:45;;;;;;;0.40;0.40;;;8.10;99.90;;;;;;5033842;28;20052;-90
2023/02/05 13:11:32;;;;;;;0.60;0.60;;;8.10;99.90;;;;;;5041106;28;20078;-89
2023/02/05 13:14:19;;;;;;;;;;;8.10;99.90;;;;;;5050026;28;20040;-89
2023/02/05 13:16:50;;;;;;;0.40;0.40;;;8.10;99.90;;;;;;5027056;28;20011;-89
2023/02/05 13:19:28;;;;;;;0.75;0.75;;;8.20;99.90;;;;;;5041564;28;20032;-89
2023/02/05 13:30:49;;;;;;;1.83;1.73;;;7.90;99.90;;;;;;5050755;28;20049;-89